sensor_id;sensor_type;location;lat;lon;timestamp;temperature;humidity
21861;DHT22;11095;48.066;8.540;2022-07-04T00:00:23;19.80;99.90
21861;DHT22;11095;48.066;8.540;2022-07-04T00:02:50;19.80;99.90
21861;DHT22;11095;48.066;8.540;2022-07-04T00:05:16;19.80;99.90
21861;DHT22;11095;48.066;8.540;2022-07-04T00:07:44;19.80;99.90
21861;DHT22;11095;48.066;8.540;2022-07-04T00:10:13;19.80;99.90
21861;DHT22;11095;48.066;8.540;2022-07-04T00:12:40;19.70;99.90
21861;DHT22;11095;48.066;8.540;2022-07-04T00:15:07;19.70;99.90
21861;DHT22;11095;48.066;8.540;2022-07-04T00:17:33;19.60;99.90
21861;DHT22;11095;48.066;8.540;2022-07-04T00:19:59;19.60;99.90
21861;DHT22;11095;48.066;8.540;2022-07-04T00:22:25;19.50;99.90
21861;DHT22;11095;48.066;8.540;2022-07-04T00:24:51;19.60;99.90
21861;DHT22;11095;48.066;8.540;2022-07-04T00:27:17;19.60;99.90
21861;DHT22;11095;48.066;8.540;2022-07-04T00:29:43;19.60;99.90
21861;DHT22;11095;48.066;8.540;2022-07-04T00:32:09;19.70;99.90
21861;DHT22;11095;48.066;8.540;2022-07-04T00:34:34;19.70;99.90
21861;DHT22;11095;48.066;8.540;2022-07-04T00:37:00;19.60;99.90
21861;DHT22;11095;48.066;8.540;2022-07-04T00:39:26;19.50;99.90
21861;DHT22;11095;48.066;8.540;2022-07-04T00:41:52;19.50;99.90
21861;DHT22;11095;48.066;8.540;2022-07-04T00:44:17;19.40;99.90
21861;DHT22;11095;48.066;8.540;2022-07-04T00:46:46;19.40;99.90
21861;DHT22;11095;48.066;8.540;2022-07-04T00:49:12;19.40;99.90
21861;DHT22;11095;48.066;8.540;2022-07-04T00:51:40;19.40;99.90
21861;DHT22;11095;48.066;8.540;2022-07-04T00:54:07;19.40;99.90
21861;DHT22;11095;48.066;8.540;2022-07-04T00:56:36;19.40;99.90
21861;DHT22;11095;48.066;8.540;2022-07-04T00:59:02;19.50;99.90
21861;DHT22;11095;48.066;8.540;2022-07-04T01:01:27;19.40;99.90
21861;DHT22;11095;48.066;8.540;2022-07-04T01:03:53;19.40;99.90
21861;DHT22;11095;48.066;8.540;2022-07-04T01:06:19;19.50;99.90
21861;DHT22;11095;48.066;8.540;2022-07-04T01:08:45;19.50;99.90
21861;DHT22;11095;48.066;8.540;2022-07-04T01:11:12;19.50;99.90
21861;DHT22;11095;48.066;8.540;2022-07-04T01:13:38;19.50;99.90
21861;DHT22;11095;48.066;8.540;2022-07-04T01:16:06;19.40;99.90
21861;DHT22;11095;48.066;8.540;2022-07-04T01:18:32;19.40;99.90
21861;DHT22;11095;48.066;8.540;2022-07-04T01:20:57;19.50;99.90
21861;DHT22;11095;48.066;8.540;2022-07-04T01:23:23;19.50;99.90
21861;DHT22;11095;48.066;8.540;2022-07-04T01:25:49;19.50;99.90
21861;DHT22;11095;48.066;8.540;2022-07-04T01:28:17;19.50;99.90
21861;DHT22;11095;48.066;8.540;2022-07-04T01:30:43;19.50;99.90
21861;DHT22;11095;48.066;8.540;2022-07-04T01:33:09;19.50;99.90
21861;DHT22;11095;48.066;8.540;2022-07-04T01:35:34;19.50;99.90
21861;DHT22;11095;48.066;8.540;2022-07-04T01:38:00;19.40;99.90
21861;DHT22;11095;48.066;8.540;2022-07-04T01:40:26;19.30;99.90
21861;DHT22;11095;48.066;8.540;2022-07-04T01:42:52;19.30;99.90
21861;DHT22;11095;48.066;8.540;2022-07-04T01:45:17;19.20;99.90
21861;DHT22;11095;48.066;8.540;2022-07-04T01:47:43;19.20;99.90
21861;DHT22;11095;48.066;8.540;2022-07-04T01:50:10;19.10;99.90
21861;DHT22;11095;48.066;8.540;2022-07-04T01:52:38;19.10;99.90
21861;DHT22;11095;48.066;8.540;2022-07-04T01:55:05;19.00;99.90
21861;DHT22;11095;48.066;8.540;2022-07-04T01:57:31;19.00;99.90
21861;DHT22;11095;48.066;8.540;2022-07-04T01:59:56;19.00;99.90
21861;DHT22;11095;48.066;8.540;2022-07-04T02:02:41;19.00;99.90
21861;DHT22;11095;48.066;8.540;2022-07-04T02:05:07;19.00;99.90
21861;DHT22;11095;48.066;8.540;2022-07-04T02:07:32;19.00;99.90
21861;DHT22;11095;48.066;8.540;2022-07-04T02:09:58;18.90;99.90
21861;DHT22;11095;48.066;8.540;2022-07-04T02:12:24;18.90;99.90
21861;DHT22;11095;48.066;8.540;2022-07-04T02:15:08;18.80;99.90
21861;DHT22;11095;48.066;8.540;2022-07-04T02:17:34;18.80;99.90
21861;DHT22;11095;48.066;8.540;2022-07-04T02:20:00;18.80;99.90
21861;DHT22;11095;48.066;8.540;2022-07-04T02:22:25;18.80;99.90
21861;DHT22;11095;48.066;8.540;2022-07-04T02:24:51;18.80;99.90
21861;DHT22;11095;48.066;8.540;2022-07-04T02:27:16;18.70;99.90
21861;DHT22;11095;48.066;8.540;2022-07-04T02:29:42;18.70;99.90
21861;DHT22;11095;48.066;8.540;2022-07-04T02:32:08;18.70;99.90
21861;DHT22;11095;48.066;8.540;2022-07-04T02:34:34;18.60;99.90
21861;DHT22;11095;48.066;8.540;2022-07-04T02:37:00;18.60;99.90
21861;DHT22;11095;48.066;8.540;2022-07-04T02:39:26;18.50;99.90
21861;DHT22;11095;48.066;8.540;2022-07-04T02:41:51;18.50;99.90
21861;DHT22;11095;48.066;8.540;2022-07-04T02:44:17;18.50;99.90
21861;DHT22;11095;48.066;8.540;2022-07-04T02:46:42;18.50;99.90
21861;DHT22;11095;48.066;8.540;2022-07-04T02:49:08;18.50;99.90
21861;DHT22;11095;48.066;8.540;2022-07-04T02:51:34;18.40;99.90
21861;DHT22;11095;48.066;8.540;2022-07-04T02:54:00;18.40;99.90
21861;DHT22;11095;48.066;8.540;2022-07-04T02:56:26;18.40;99.90
21861;DHT22;11095;48.066;8.540;2022-07-04T02:58:52;18.40;99.90
21861;DHT22;11095;48.066;8.540;2022-07-04T03:01:17;18.30;99.90
21861;DHT22;11095;48.066;8.540;2022-07-04T03:03:45;18.30;99.90
21861;DHT22;11095;48.066;8.540;2022-07-04T03:06:11;18.20;99.90
21861;DHT22;11095;48.066;8.540;2022-07-04T03:08:38;18.10;99.90
21861;DHT22;11095;48.066;8.540;2022-07-04T03:11:04;18.00;99.90
21861;DHT22;11095;48.066;8.540;2022-07-04T03:13:30;18.00;99.90
21861;DHT22;11095;48.066;8.540;2022-07-04T03:15:56;17.90;99.90
21861;DHT22;11095;48.066;8.540;2022-07-04T03:18:21;17.80;99.90
21861;DHT22;11095;48.066;8.540;2022-07-04T03:20:47;17.80;99.90
21861;DHT22;11095;48.066;8.540;2022-07-04T03:23:13;17.80;99.90
21861;DHT22;11095;48.066;8.540;2022-07-04T03:25:39;17.80;99.90
21861;DHT22;11095;48.066;8.540;2022-07-04T03:28:05;17.70;99.90
21861;DHT22;11095;48.066;8.540;2022-07-04T03:30:32;17.70;99.90
21861;DHT22;11095;48.066;8.540;2022-07-04T03:32:58;17.60;99.90
21861;DHT22;11095;48.066;8.540;2022-07-04T03:35:24;17.60;99.90
21861;DHT22;11095;48.066;8.540;2022-07-04T03:37:50;17.60;99.90
21861;DHT22;11095;48.066;8.540;2022-07-04T03:40:17;17.50;99.90
21861;DHT22;11095;48.066;8.540;2022-07-04T03:42:43;17.50;99.90
21861;DHT22;11095;48.066;8.540;2022-07-04T03:45:09;17.50;99.90
21861;DHT22;11095;48.066;8.540;2022-07-04T03:47:35;17.50;99.90
21861;DHT22;11095;48.066;8.540;2022-07-04T03:50:00;17.50;99.90
21861;DHT22;11095;48.066;8.540;2022-07-04T03:52:26;17.60;99.90
21861;DHT22;11095;48.066;8.540;2022-07-04T03:54:53;17.60;99.90
21861;DHT22;11095;48.066;8.540;2022-07-04T03:57:18;17.60;99.90
21861;DHT22;11095;48.066;8.540;2022-07-04T03:59:44;17.70;99.90
21861;DHT22;11095;48.066;8.540;2022-07-04T04:02:09;17.80;99.90
21861;DHT22;11095;48.066;8.540;2022-07-04T04:04:35;17.80;99.90
21861;DHT22;11095;48.066;8.540;2022-07-04T04:07:19;17.80;99.90
21861;DHT22;11095;48.066;8.540;2022-07-04T04:09:45;17.80;99.90
21861;DHT22;11095;48.066;8.540;2022-07-04T04:12:11;17.90;99.90
21861;DHT22;11095;48.066;8.540;2022-07-04T04:14:36;17.90;99.90
21861;DHT22;11095;48.066;8.540;2022-07-04T04:17:03;18.00;99.90
21861;DHT22;11095;48.066;8.540;2022-07-04T04:19:29;18.00;99.90
21861;DHT22;11095;48.066;8.540;2022-07-04T04:21:54;18.10;99.90
21861;DHT22;11095;48.066;8.540;2022-07-04T04:24:20;18.10;99.90
21861;DHT22;11095;48.066;8.540;2022-07-04T04:26:46;18.10;99.90
21861;DHT22;11095;48.066;8.540;2022-07-04T04:29:11;18.00;99.90
21861;DHT22;11095;48.066;8.540;2022-07-04T04:31:37;18.00;99.90
21861;DHT22;11095;48.066;8.540;2022-07-04T04:34:03;18.00;99.90
21861;DHT22;11095;48.066;8.540;2022-07-04T04:36:28;17.90;99.90
21861;DHT22;11095;48.066;8.540;2022-07-04T04:38:54;17.90;99.90
21861;DHT22;11095;48.066;8.540;2022-07-04T04:41:19;17.90;99.90
21861;DHT22;11095;48.066;8.540;2022-07-04T04:43:45;17.90;99.90
21861;DHT22;11095;48.066;8.540;2022-07-04T04:46:11;17.80;99.90
21861;DHT22;11095;48.066;8.540;2022-07-04T04:48:36;17.80;99.90
21861;DHT22;11095;48.066;8.540;2022-07-04T04:51:02;17.80;99.90
21861;DHT22;11095;48.066;8.540;2022-07-04T04:53:28;17.80;99.90
21861;DHT22;11095;48.066;8.540;2022-07-04T04:55:54;17.90;99.90
21861;DHT22;11095;48.066;8.540;2022-07-04T04:58:21;18.00;99.90
21861;DHT22;11095;48.066;8.540;2022-07-04T05:00:46;18.00;99.90
21861;DHT22;11095;48.066;8.540;2022-07-04T05:03:14;18.00;99.90
21861;DHT22;11095;48.066;8.540;2022-07-04T05:05:40;17.90;99.90
21861;DHT22;11095;48.066;8.540;2022-07-04T05:08:05;18.00;99.90
21861;DHT22;11095;48.066;8.540;2022-07-04T05:10:31;18.00;99.90
21861;DHT22;11095;48.066;8.540;2022-07-04T05:12:57;18.10;99.90
21861;DHT22;11095;48.066;8.540;2022-07-04T05:15:22;18.20;99.90
21861;DHT22;11095;48.066;8.540;2022-07-04T05:17:48;18.20;99.90
21861;DHT22;11095;48.066;8.540;2022-07-04T05:20:14;18.20;99.90
21861;DHT22;11095;48.066;8.540;2022-07-04T05:22:39;18.30;99.90
21861;DHT22;11095;48.066;8.540;2022-07-04T05:25:06;18.30;99.90
21861;DHT22;11095;48.066;8.540;2022-07-04T05:27:32;18.30;99.90
21861;DHT22;11095;48.066;8.540;2022-07-04T05:29:58;18.30;99.90
21861;DHT22;11095;48.066;8.540;2022-07-04T05:32:25;18.30;99.90
21861;DHT22;11095;48.066;8.540;2022-07-04T05:34:51;18.20;99.90
21861;DHT22;11095;48.066;8.540;2022-07-04T05:37:17;18.20;99.90
21861;DHT22;11095;48.066;8.540;2022-07-04T05:39:42;18.10;99.90
21861;DHT22;11095;48.066;8.540;2022-07-04T05:42:08;18.10;99.90
21861;DHT22;11095;48.066;8.540;2022-07-04T05:44:34;18.10;99.90
21861;DHT22;11095;48.066;8.540;2022-07-04T05:46:59;18.10;99.90
21861;DHT22;11095;48.066;8.540;2022-07-04T05:49:25;18.10;99.90
21861;DHT22;11095;48.066;8.540;2022-07-04T05:51:51;18.20;99.90
21861;DHT22;11095;48.066;8.540;2022-07-04T05:54:16;18.40;99.90
21861;DHT22;11095;48.066;8.540;2022-07-04T05:56:43;18.40;99.90
21861;DHT22;11095;48.066;8.540;2022-07-04T05:59:09;18.40;99.90
21861;DHT22;11095;48.066;8.540;2022-07-04T06:01:36;18.60;99.90
21861;DHT22;11095;48.066;8.540;2022-07-04T06:04:03;18.60;99.90
21861;DHT22;11095;48.066;8.540;2022-07-04T06:06:28;18.70;99.90
21861;DHT22;11095;48.066;8.540;2022-07-04T06:08:55;18.80;99.90
21861;DHT22;11095;48.066;8.540;2022-07-04T06:11:21;18.90;99.90
21861;DHT22;11095;48.066;8.540;2022-07-04T06:13:47;19.00;99.90
21861;DHT22;11095;48.066;8.540;2022-07-04T06:16:13;19.20;99.90
21861;DHT22;11095;48.066;8.540;2022-07-04T06:18:39;19.20;99.90
21861;DHT22;11095;48.066;8.540;2022-07-04T06:21:05;19.30;99.90
21861;DHT22;11095;48.066;8.540;2022-07-04T06:23:31;19.40;99.90
21861;DHT22;11095;48.066;8.540;2022-07-04T06:25:56;19.40;99.90
21861;DHT22;11095;48.066;8.540;2022-07-04T06:28:22;19.50;99.90
21861;DHT22;11095;48.066;8.540;2022-07-04T06:30:47;19.60;99.90
21861;DHT22;11095;48.066;8.540;2022-07-04T06:33:13;19.60;99.90
21861;DHT22;11095;48.066;8.540;2022-07-04T06:35:39;19.60;99.90
21861;DHT22;11095;48.066;8.540;2022-07-04T06:38:16;19.70;99.90
21861;DHT22;11095;48.066;8.540;2022-07-04T06:40:43;19.80;99.90
21861;DHT22;11095;48.066;8.540;2022-07-04T06:43:09;19.90;99.90
21861;DHT22;11095;48.066;8.540;2022-07-04T06:45:35;19.90;99.90
21861;DHT22;11095;48.066;8.540;2022-07-04T06:48:01;20.00;99.90
21861;DHT22;11095;48.066;8.540;2022-07-04T06:50:27;20.00;99.90
21861;DHT22;11095;48.066;8.540;2022-07-04T06:52:53;20.00;99.90
21861;DHT22;11095;48.066;8.540;2022-07-04T06:55:19;20.10;99.90
21861;DHT22;11095;48.066;8.540;2022-07-04T06:57:44;20.30;99.90
21861;DHT22;11095;48.066;8.540;2022-07-04T07:00:10;20.40;99.90
21861;DHT22;11095;48.066;8.540;2022-07-04T07:02:37;20.50;99.90
21861;DHT22;11095;48.066;8.540;2022-07-04T07:05:04;20.50;99.90
21861;DHT22;11095;48.066;8.540;2022-07-04T07:07:30;20.30;99.90
21861;DHT22;11095;48.066;8.540;2022-07-04T07:09:55;20.30;99.90
21861;DHT22;11095;48.066;8.540;2022-07-04T07:12:22;20.20;99.90
21861;DHT22;11095;48.066;8.540;2022-07-04T07:14:49;20.20;99.90
21861;DHT22;11095;48.066;8.540;2022-07-04T07:17:16;20.60;99.90
21861;DHT22;11095;48.066;8.540;2022-07-04T07:19:43;21.10;99.90
21861;DHT22;11095;48.066;8.540;2022-07-04T07:22:12;21.70;99.90
21861;DHT22;11095;48.066;8.540;2022-07-04T07:24:38;21.90;99.90
21861;DHT22;11095;48.066;8.540;2022-07-04T07:27:05;22.10;99.90
21861;DHT22;11095;48.066;8.540;2022-07-04T07:29:31;22.00;99.90
21861;DHT22;11095;48.066;8.540;2022-07-04T07:31:57;21.70;99.90
21861;DHT22;11095;48.066;8.540;2022-07-04T07:34:23;21.50;99.90
21861;DHT22;11095;48.066;8.540;2022-07-04T07:36:49;21.80;99.90
21861;DHT22;11095;48.066;8.540;2022-07-04T07:39:14;22.50;99.90
21861;DHT22;11095;48.066;8.540;2022-07-04T07:41:40;23.10;99.90
21861;DHT22;11095;48.066;8.540;2022-07-04T07:44:07;23.30;99.90
21861;DHT22;11095;48.066;8.540;2022-07-04T07:46:33;23.60;99.90
21861;DHT22;11095;48.066;8.540;2022-07-04T07:49:00;23.90;99.90
21861;DHT22;11095;48.066;8.540;2022-07-04T07:51:26;24.30;99.90
21861;DHT22;11095;48.066;8.540;2022-07-04T07:53:52;25.50;99.90
21861;DHT22;11095;48.066;8.540;2022-07-04T07:56:18;26.60;99.90
21861;DHT22;11095;48.066;8.540;2022-07-04T07:58:43;27.20;99.90
21861;DHT22;11095;48.066;8.540;2022-07-04T08:01:09;28.10;99.90
21861;DHT22;11095;48.066;8.540;2022-07-04T08:03:34;29.50;99.90
21861;DHT22;11095;48.066;8.540;2022-07-04T08:06:19;31.00;99.90
21861;DHT22;11095;48.066;8.540;2022-07-04T08:08:44;32.20;99.90
21861;DHT22;11095;48.066;8.540;2022-07-04T08:11:11;32.60;99.90
21861;DHT22;11095;48.066;8.540;2022-07-04T08:13:37;33.00;99.90
21861;DHT22;11095;48.066;8.540;2022-07-04T08:16:03;33.50;99.90
21861;DHT22;11095;48.066;8.540;2022-07-04T08:18:29;33.70;99.90
21861;DHT22;11095;48.066;8.540;2022-07-04T08:20:55;34.30;98.90
21861;DHT22;11095;48.066;8.540;2022-07-04T08:23:20;34.90;96.10
21861;DHT22;11095;48.066;8.540;2022-07-04T08:25:46;34.90;94.60
21861;DHT22;11095;48.066;8.540;2022-07-04T08:28:12;34.80;94.10
21861;DHT22;11095;48.066;8.540;2022-07-04T08:30:37;34.30;93.80
21861;DHT22;11095;48.066;8.540;2022-07-04T08:33:03;33.80;94.00
21861;DHT22;11095;48.066;8.540;2022-07-04T08:35:29;33.00;94.40
21861;DHT22;11095;48.066;8.540;2022-07-04T08:37:55;32.90;93.90
21861;DHT22;11095;48.066;8.540;2022-07-04T08:40:25;30.10;96.20
21861;DHT22;11095;48.066;8.540;2022-07-04T08:42:51;29.90;97.30
21861;DHT22;11095;48.066;8.540;2022-07-04T08:45:27;29.30;97.90
21861;DHT22;11095;48.066;8.540;2022-07-04T08:48:01;27.40;99.90
21861;DHT22;11095;48.066;8.540;2022-07-04T08:50:39;27.70;99.90
21861;DHT22;11095;48.066;8.540;2022-07-04T08:53:10;28.60;99.90
21861;DHT22;11095;48.066;8.540;2022-07-04T08:55:38;29.60;99.70
21861;DHT22;11095;48.066;8.540;2022-07-04T08:58:23;30.10;97.10
21861;DHT22;11095;48.066;8.540;2022-07-04T09:00:56;29.00;98.10
21861;DHT22;11095;48.066;8.540;2022-07-04T09:03:24;29.80;98.30
21861;DHT22;11095;48.066;8.540;2022-07-04T09:05:50;30.80;97.00
21861;DHT22;11095;48.066;8.540;2022-07-04T09:08:17;31.10;95.70
21861;DHT22;11095;48.066;8.540;2022-07-04T09:10:43;29.70;96.30
21861;DHT22;11095;48.066;8.540;2022-07-04T09:13:11;29.20;97.00
21861;DHT22;11095;48.066;8.540;2022-07-04T09:15:37;30.00;96.30
21861;DHT22;11095;48.066;8.540;2022-07-04T09:18:04;30.90;96.40
21861;DHT22;11095;48.066;8.540;2022-07-04T09:20:32;31.80;93.90
21861;DHT22;11095;48.066;8.540;2022-07-04T09:22:58;32.70;92.70
21861;DHT22;11095;48.066;8.540;2022-07-04T09:25:25;33.30;91.50
21861;DHT22;11095;48.066;8.540;2022-07-04T09:27:53;33.80;90.30
21861;DHT22;11095;48.066;8.540;2022-07-04T09:30:29;34.40;88.70
21861;DHT22;11095;48.066;8.540;2022-07-04T09:32:56;35.10;86.60
21861;DHT22;11095;48.066;8.540;2022-07-04T09:35:30;35.60;85.30
21861;DHT22;11095;48.066;8.540;2022-07-04T09:37:59;35.10;84.30
21861;DHT22;11095;48.066;8.540;2022-07-04T09:40:27;34.80;82.20
21861;DHT22;11095;48.066;8.540;2022-07-04T09:42:54;33.50;83.70
21861;DHT22;11095;48.066;8.540;2022-07-04T09:45:20;32.80;84.50
21861;DHT22;11095;48.066;8.540;2022-07-04T09:47:49;32.00;89.20
21861;DHT22;11095;48.066;8.540;2022-07-04T09:50:21;31.00;89.20
21861;DHT22;11095;48.066;8.540;2022-07-04T09:53:07;29.40;91.10
21861;DHT22;11095;48.066;8.540;2022-07-04T09:55:37;27.60;94.00
21861;DHT22;11095;48.066;8.540;2022-07-04T09:58:09;27.10;95.20
21861;DHT22;11095;48.066;8.540;2022-07-04T10:00:42;26.20;97.00
21861;DHT22;11095;48.066;8.540;2022-07-04T10:06:01;25.00;99.90
21861;DHT22;11095;48.066;8.540;2022-07-04T10:08:27;24.80;99.90
21861;DHT22;11095;48.066;8.540;2022-07-04T10:10:57;25.90;99.90
21861;DHT22;11095;48.066;8.540;2022-07-04T10:13:23;24.90;99.90
21861;DHT22;11095;48.066;8.540;2022-07-04T10:15:49;23.80;99.90
21861;DHT22;11095;48.066;8.540;2022-07-04T10:18:18;22.90;99.90
21861;DHT22;11095;48.066;8.540;2022-07-04T10:20:45;22.10;99.90
21861;DHT22;11095;48.066;8.540;2022-07-04T10:23:11;22.20;99.90
21861;DHT22;11095;48.066;8.540;2022-07-04T10:25:37;22.50;99.90
21861;DHT22;11095;48.066;8.540;2022-07-04T10:28:04;22.40;99.90
21861;DHT22;11095;48.066;8.540;2022-07-04T10:30:32;22.80;99.90
21861;DHT22;11095;48.066;8.540;2022-07-04T10:33:04;23.00;99.90
21861;DHT22;11095;48.066;8.540;2022-07-04T10:35:56;23.10;99.90
21861;DHT22;11095;48.066;8.540;2022-07-04T10:38:24;23.00;99.90
21861;DHT22;11095;48.066;8.540;2022-07-04T10:40:58;23.00;99.90
21861;DHT22;11095;48.066;8.540;2022-07-04T10:48:36;23.70;99.90
21861;DHT22;11095;48.066;8.540;2022-07-04T10:51:04;24.30;99.90
21861;DHT22;11095;48.066;8.540;2022-07-04T10:53:30;24.80;99.90
21861;DHT22;11095;48.066;8.540;2022-07-04T10:58:51;24.20;99.90
21861;DHT22;11095;48.066;8.540;2022-07-04T11:01:17;23.40;99.90
21861;DHT22;11095;48.066;8.540;2022-07-04T11:03:47;22.70;99.90
21861;DHT22;11095;48.066;8.540;2022-07-04T11:09:22;22.60;99.90
21861;DHT22;11095;48.066;8.540;2022-07-04T11:11:59;22.90;99.90
21861;DHT22;11095;48.066;8.540;2022-07-04T11:14:45;23.40;99.90
21861;DHT22;11095;48.066;8.540;2022-07-04T11:17:13;23.90;99.90
21861;DHT22;11095;48.066;8.540;2022-07-04T11:19:39;23.50;99.90
21861;DHT22;11095;48.066;8.540;2022-07-04T11:22:06;24.20;99.90
21861;DHT22;11095;48.066;8.540;2022-07-04T11:24:34;24.10;99.90
21861;DHT22;11095;48.066;8.540;2022-07-04T11:27:00;24.90;99.90
21861;DHT22;11095;48.066;8.540;2022-07-04T11:29:26;24.40;99.90
21861;DHT22;11095;48.066;8.540;2022-07-04T11:31:52;23.70;99.90
21861;DHT22;11095;48.066;8.540;2022-07-04T11:34:18;23.30;99.90
21861;DHT22;11095;48.066;8.540;2022-07-04T11:36:46;23.20;99.90
21861;DHT22;11095;48.066;8.540;2022-07-04T11:39:22;24.00;99.90
21861;DHT22;11095;48.066;8.540;2022-07-04T11:41:52;24.30;99.90
21861;DHT22;11095;48.066;8.540;2022-07-04T11:44:40;24.00;99.90
21861;DHT22;11095;48.066;8.540;2022-07-04T11:47:35;23.20;99.90
21861;DHT22;11095;48.066;8.540;2022-07-04T11:50:02;22.70;99.90
21861;DHT22;11095;48.066;8.540;2022-07-04T11:52:30;22.30;99.90
21861;DHT22;11095;48.066;8.540;2022-07-04T11:54:56;22.30;99.90
21861;DHT22;11095;48.066;8.540;2022-07-04T11:57:34;22.40;99.90
21861;DHT22;11095;48.066;8.540;2022-07-04T12:00:03;22.50;99.90
21861;DHT22;11095;48.066;8.540;2022-07-04T12:02:30;22.40;99.90
21861;DHT22;11095;48.066;8.540;2022-07-04T12:04:56;22.40;99.90
21861;DHT22;11095;48.066;8.540;2022-07-04T12:07:24;22.80;99.90
21861;DHT22;11095;48.066;8.540;2022-07-04T12:09:51;23.50;99.90
21861;DHT22;11095;48.066;8.540;2022-07-04T12:12:16;24.40;99.90
21861;DHT22;11095;48.066;8.540;2022-07-04T12:15:06;24.50;99.90
21861;DHT22;11095;48.066;8.540;2022-07-04T12:17:37;24.60;99.90
21861;DHT22;11095;48.066;8.540;2022-07-04T12:20:16;24.20;99.90
21861;DHT22;11095;48.066;8.540;2022-07-04T12:23:00;24.10;99.90
21861;DHT22;11095;48.066;8.540;2022-07-04T12:25:31;23.50;99.90
21861;DHT22;11095;48.066;8.540;2022-07-04T12:27:59;22.80;99.90
21861;DHT22;11095;48.066;8.540;2022-07-04T12:30:27;22.80;99.90
21861;DHT22;11095;48.066;8.540;2022-07-04T12:33:00;23.00;99.90
21861;DHT22;11095;48.066;8.540;2022-07-04T12:35:44;23.40;99.90
21861;DHT22;11095;48.066;8.540;2022-07-04T12:43:44;23.50;99.90
21861;DHT22;11095;48.066;8.540;2022-07-04T12:46:30;24.00;99.90
21861;DHT22;11095;48.066;8.540;2022-07-04T12:48:58;24.50;99.90
21861;DHT22;11095;48.066;8.540;2022-07-04T12:51:31;24.90;99.90
21861;DHT22;11095;48.066;8.540;2022-07-04T12:53:59;24.00;99.90
21861;DHT22;11095;48.066;8.540;2022-07-04T12:56:35;23.90;99.90
21861;DHT22;11095;48.066;8.540;2022-07-04T12:59:05;23.80;99.90
21861;DHT22;11095;48.066;8.540;2022-07-04T13:01:31;23.40;99.90
21861;DHT22;11095;48.066;8.540;2022-07-04T13:03:57;23.50;99.90
21861;DHT22;11095;48.066;8.540;2022-07-04T13:06:23;23.60;99.90
21861;DHT22;11095;48.066;8.540;2022-07-04T13:08:49;23.70;99.90
21861;DHT22;11095;48.066;8.540;2022-07-04T13:11:15;23.50;99.90
21861;DHT22;11095;48.066;8.540;2022-07-04T13:13:59;23.40;99.90
21861;DHT22;11095;48.066;8.540;2022-07-04T13:16:25;23.40;99.90
21861;DHT22;11095;48.066;8.540;2022-07-04T13:18:51;23.20;99.90
21861;DHT22;11095;48.066;8.540;2022-07-04T13:21:16;23.00;99.90
21861;DHT22;11095;48.066;8.540;2022-07-04T13:23:42;22.90;99.90
21861;DHT22;11095;48.066;8.540;2022-07-04T13:26:08;23.00;99.90
21861;DHT22;11095;48.066;8.540;2022-07-04T13:28:33;23.00;99.90
21861;DHT22;11095;48.066;8.540;2022-07-04T13:30:59;23.10;99.90
21861;DHT22;11095;48.066;8.540;2022-07-04T13:33:24;23.00;99.90
21861;DHT22;11095;48.066;8.540;2022-07-04T13:35:50;23.30;99.90
21861;DHT22;11095;48.066;8.540;2022-07-04T13:38:16;23.50;99.90
21861;DHT22;11095;48.066;8.540;2022-07-04T13:40:44;23.80;99.90
21861;DHT22;11095;48.066;8.540;2022-07-04T13:43:10;23.70;99.90
21861;DHT22;11095;48.066;8.540;2022-07-04T13:45:40;24.20;99.90
21861;DHT22;11095;48.066;8.540;2022-07-04T13:48:07;25.00;99.90
21861;DHT22;11095;48.066;8.540;2022-07-04T13:50:33;25.20;99.90
21861;DHT22;11095;48.066;8.540;2022-07-04T13:53:03;24.70;99.90
21861;DHT22;11095;48.066;8.540;2022-07-04T13:55:28;25.40;99.90
21861;DHT22;11095;48.066;8.540;2022-07-04T13:57:54;26.10;99.90
21861;DHT22;11095;48.066;8.540;2022-07-04T14:00:20;26.90;99.90
21861;DHT22;11095;48.066;8.540;2022-07-04T14:02:45;27.30;99.90
21861;DHT22;11095;48.066;8.540;2022-07-04T14:05:11;27.50;99.90
21861;DHT22;11095;48.066;8.540;2022-07-04T14:07:37;25.70;99.90
21861;DHT22;11095;48.066;8.540;2022-07-04T14:10:03;25.90;99.90
21861;DHT22;11095;48.066;8.540;2022-07-04T14:12:29;25.70;99.90
21861;DHT22;11095;48.066;8.540;2022-07-04T14:14:55;26.10;99.90
21861;DHT22;11095;48.066;8.540;2022-07-04T14:17:20;26.60;99.90
21861;DHT22;11095;48.066;8.540;2022-07-04T14:19:47;26.60;99.90
21861;DHT22;11095;48.066;8.540;2022-07-04T14:22:13;27.20;99.90
21861;DHT22;11095;48.066;8.540;2022-07-04T14:24:38;27.60;99.90
21861;DHT22;11095;48.066;8.540;2022-07-04T14:27:04;27.90;99.90
21861;DHT22;11095;48.066;8.540;2022-07-04T14:29:30;28.00;99.90
21861;DHT22;11095;48.066;8.540;2022-07-04T14:31:55;28.10;99.90
21861;DHT22;11095;48.066;8.540;2022-07-04T14:34:21;27.80;99.90
21861;DHT22;11095;48.066;8.540;2022-07-04T14:36:47;27.30;99.90
21861;DHT22;11095;48.066;8.540;2022-07-04T14:39:13;27.30;99.90
21861;DHT22;11095;48.066;8.540;2022-07-04T14:41:38;27.30;99.90
21861;DHT22;11095;48.066;8.540;2022-07-04T14:44:04;27.50;99.90
21861;DHT22;11095;48.066;8.540;2022-07-04T14:46:30;27.60;99.90
21861;DHT22;11095;48.066;8.540;2022-07-04T14:48:56;27.60;99.60
21861;DHT22;11095;48.066;8.540;2022-07-04T14:51:23;27.60;99.90
21861;DHT22;11095;48.066;8.540;2022-07-04T14:53:48;26.70;99.70
21861;DHT22;11095;48.066;8.540;2022-07-04T14:56:14;26.10;99.90
21861;DHT22;11095;48.066;8.540;2022-07-04T14:58:39;25.70;99.90
21861;DHT22;11095;48.066;8.540;2022-07-04T15:01:05;25.20;99.90
21861;DHT22;11095;48.066;8.540;2022-07-04T15:03:31;25.10;99.90
21861;DHT22;11095;48.066;8.540;2022-07-04T15:05:57;25.00;99.90
21861;DHT22;11095;48.066;8.540;2022-07-04T15:08:23;25.20;99.90
21861;DHT22;11095;48.066;8.540;2022-07-04T15:10:49;25.30;99.90
21861;DHT22;11095;48.066;8.540;2022-07-04T15:13:15;25.50;99.90
21861;DHT22;11095;48.066;8.540;2022-07-04T15:15:41;25.60;99.90
21861;DHT22;11095;48.066;8.540;2022-07-04T15:18:07;25.60;99.90
21861;DHT22;11095;48.066;8.540;2022-07-04T15:20:32;25.60;99.90
21861;DHT22;11095;48.066;8.540;2022-07-04T15:23:16;25.60;99.90
21861;DHT22;11095;48.066;8.540;2022-07-04T15:26:01;25.60;99.90
21861;DHT22;11095;48.066;8.540;2022-07-04T15:28:27;25.50;99.90
21861;DHT22;11095;48.066;8.540;2022-07-04T15:30:52;25.50;99.90
21861;DHT22;11095;48.066;8.540;2022-07-04T15:33:18;25.50;99.90
21861;DHT22;11095;48.066;8.540;2022-07-04T15:35:45;25.50;99.90
21861;DHT22;11095;48.066;8.540;2022-07-04T15:38:11;25.60;99.60
21861;DHT22;11095;48.066;8.540;2022-07-04T15:40:37;25.60;99.80
21861;DHT22;11095;48.066;8.540;2022-07-04T15:43:05;25.60;99.50
21861;DHT22;11095;48.066;8.540;2022-07-04T15:45:31;25.60;99.90
21861;DHT22;11095;48.066;8.540;2022-07-04T15:47:56;25.50;99.80
21861;DHT22;11095;48.066;8.540;2022-07-04T15:50:22;25.50;99.90